Time;durP1;ratioP1;P1;durP2;ratioP2;P2;SDS_P1;SDS_P2;PMS_P1;PMS_P2;Temp;Humidity;BMP_temperature;BMP_pressure;BME280_temperature;BME280_humidity;BME280_pressure;Samples;Min_cycle;Max_cycle;Signal;HPM_P1;HPM_P2
2023/07/23 00:01:10;;;;;;;;;;;17.50;99.90;;;;;;4985444;28;19954;-68
2023/07/23 00:03:37;;;;;;;;;;;17.50;99.90;;;;;;4990075;28;19928;-67
2023/07/23 00:06:04;;;;;;;;;;;17.50;99.90;;;;;;4984150;28;20133;-68
2023/07/23 00:08:31;;;;;;;;;;;17.50;99.90;;;;;;4983778;28;20210;-68
2023/07/23 00:10:58;;;;;;;;;;;17.50;99.90;;;;;;4983958;28;19953;-67
2023/07/23 00:13:26;;;;;;;;;;;17.50;99.90;;;;;;4984103;28;19957;-68
2023/07/23 00:15:52;;;;;;;;;;;17.50;99.90;;;;;;4983840;28;20098;-67
2023/07/23 00:18:19;;;;;;;;;;;17.50;99.90;;;;;;4986074;28;19928;-68
2023/07/23 00:20:46;;;;;;;;;;;17.40;99.90;;;;;;4989304;28;19958;-68
2023/07/23 00:23:13;;;;;;;;;;;17.40;99.90;;;;;;5006949;28;19922;-68
2023/07/23 00:25:40;;;;;;;;;;;17.40;99.90;;;;;;5006797;28;19956;-68
2023/07/23 00:28:07;;;;;;;;;;;17.40;99.90;;;;;;5006543;28;20257;-68
2023/07/23 00:30:35;;;;;;;;;;;17.40;99.90;;;;;;5004016;28;19929;-68
2023/07/23 00:33:02;;;;;;;;;;;17.40;99.90;;;;;;4987461;28;19926;-67
2023/07/23 00:35:28;;;;;;;;;;;17.40;99.90;;;;;;4987389;28;19985;-68
2023/07/23 00:37:55;;;;;;;;;;;17.40;99.90;;;;;;4987268;28;19929;-68
2023/07/23 00:40:22;;;;;;;;;;;17.30;99.90;;;;;;4988685;28;19922;-68
2023/07/23 00:42:48;;;;;;;;;;;17.30;99.90;;;;;;4999499;28;20213;-68
2023/07/23 00:45:15;;;;;;;;;;;17.30;99.90;;;;;;5006573;28;19928;-68
2023/07/23 00:47:43;;;;;;;;;;;17.30;99.90;;;;;;5006669;28;19930;-68
2023/07/23 00:50:10;;;;;;;;;;;17.30;99.90;;;;;;5006290;28;20248;-68
2023/07/23 00:52:37;;;;;;;;;;;17.30;99.90;;;;;;5006647;28;19921;-67
2023/07/23 00:55:04;;;;;;;;;;;17.40;99.90;;;;;;5006337;28;19940;-69
2023/07/23 00:57:31;;;;;;;;;;;17.40;99.90;;;;;;5006452;28;19928;-69
2023/07/23 00:59:57;;;;;;;;;;;17.40;99.90;;;;;;5006075;28;19981;-67
2023/07/23 01:02:25;;;;;;;;;;;17.30;99.90;;;;;;5006561;28;19985;-67
2023/07/23 01:04:54;;;;;;;;;;;17.40;99.90;;;;;;5006268;28;19922;-67
2023/07/23 01:07:20;;;;;;;;;;;17.40;99.90;;;;;;5006470;28;19922;-67
2023/07/23 01:09:48;;;;;;;;;;;17.30;99.90;;;;;;5005771;28;20176;-68
2023/07/23 01:12:17;;;;;;;;;;;17.30;99.90;;;;;;5006351;28;19921;-68
2023/07/23 01:14:44;;;;;;;;;;;17.20;99.90;;;;;;5006262;28;20117;-67
2023/07/23 01:17:12;;;;;;;;;;;17.20;99.90;;;;;;5006235;28;19922;-68
2023/07/23 01:19:38;;;;;;;;;;;17.20;99.90;;;;;;5006027;28;19943;-68
2023/07/23 01:22:07;;;;;;;;;;;17.20;99.90;;;;;;5005893;28;20001;-68
2023/07/23 01:24:35;;;;;;;;;;;17.20;99.90;;;;;;5005821;28;19926;-68
2023/07/23 01:27:02;;;;;;;;;;;17.20;99.90;;;;;;5005786;28;20205;-67
2023/07/23 01:29:28;;;;;;;;;;;17.20;99.90;;;;;;4998805;28;20163;-68
2023/07/23 01:31:55;;;;;;;;;;;17.10;99.90;;;;;;4986538;28;19993;-67
2023/07/23 01:34:22;;;;;;;;;;;17.10;99.90;;;;;;4986294;28;19984;-68
2023/07/23 01:36:49;;;;;;;;;;;17.10;99.90;;;;;;4986246;28;19922;-67
2023/07/23 01:39:18;;;;;;;;;;;17.10;99.90;;;;;;4990081;28;20087;-69
2023/07/23 01:41:45;;;;;;;;;;;17.10;99.90;;;;;;4990110;28;19922;-68
2023/07/23 01:44:11;;;;;;;;;;;17.00;99.90;;;;;;5005100;28;19989;-68
2023/07/23 01:46:38;;;;;;;;;;;17.00;99.90;;;;;;5005571;28;20120;-68
2023/07/23 01:49:04;;;;;;;;;;;16.90;99.90;;;;;;5004609;28;19928;-68
2023/07/23 01:51:31;;;;;;;;;;;16.90;99.90;;;;;;5015100;28;20011;-68
2023/07/23 01:53:58;;;;;;;;;;;16.90;99.90;;;;;;5025107;28;19925;-68
2023/07/23 01:56:25;;;;;;;;;;;16.90;99.90;;;;;;5024947;28;20204;-68
2023/07/23 01:58:53;;;;;;;;;;;16.80;99.90;;;;;;5002039;28;19922;-68
2023/07/23 02:01:21;;;;;;;;;;;16.90;99.90;;;;;;5000425;28;19989;-68
2023/07/23 02:03:47;;;;;;;;;;;17.00;99.90;;;;;;5004345;28;19926;-68
2023/07/23 02:06:14;;;;;;;;;;;17.00;99.90;;;;;;4985097;28;20289;-68
2023/07/23 02:08:40;;;;;;;;;;;17.10;99.90;;;;;;4984930;28;19989;-68
2023/07/23 02:11:07;;;;;;;;;;;17.10;99.90;;;;;;4985635;28;19989;-69
2023/07/23 02:13:35;;;;;;;;;;;17.20;99.90;;;;;;4985582;28;19953;-68
2023/07/23 02:16:02;;;;;;;;;;;17.20;99.90;;;;;;4985136;28;19922;-67
2023/07/23 02:18:29;;;;;;;;;;;17.30;99.90;;;;;;4984806;28;19929;-68
2023/07/23 02:20:56;;;;;;;;;;;17.30;99.90;;;;;;4985453;28;19953;-68
2023/07/23 02:23:23;;;;;;;;;;;17.30;99.90;;;;;;4985026;28;20233;-68
2023/07/23 02:25:49;;;;;;;;;;;17.20;99.90;;;;;;4985355;28;19926;-68
2023/07/23 02:28:16;;;;;;;;;;;17.20;99.90;;;;;;4984501;28;19989;-68
2023/07/23 02:30:44;;;;;;;;;;;17.20;99.90;;;;;;4985070;28;20205;-67
2023/07/23 02:33:11;;;;;;;;;;;17.10;99.90;;;;;;4984858;28;20278;-68
2023/07/23 02:35:38;;;;;;;;;;;17.10;99.90;;;;;;4985076;28;20097;-67
2023/07/23 02:38:04;;;;;;;;;;;17.00;99.90;;;;;;4984065;28;19926;-68
2023/07/23 02:40:31;;;;;;;;;;;16.90;99.90;;;;;;4985031;28;19960;-67
2023/07/23 02:42:58;;;;;;;;;;;16.90;99.90;;;;;;4998137;28;19973;-67
2023/07/23 02:45:25;;;;;;;;;;;16.90;99.90;;;;;;5004207;28;19928;-68
2023/07/23 02:47:53;;;;;;;;;;;16.80;99.90;;;;;;5004067;28;19922;-68
2023/07/23 02:50:19;;;;;;;;;;;16.70;99.90;;;;;;5003779;28;20124;-68
2023/07/23 02:52:46;;;;;;;;;;;16.70;99.90;;;;;;5004456;28;20116;-68
2023/07/23 02:55:12;;;;;;;;;;;16.60;99.90;;;;;;4994684;28;19928;-68
2023/07/23 02:57:39;;;;;;;;;;;16.60;99.90;;;;;;4984291;28;19962;-68
2023/07/23 03:00:08;;;;;;;;;;;16.50;99.90;;;;;;4981416;28;19985;-69
2023/07/23 03:02:41;;;;;;;;;;;16.50;99.90;;;;;;4982982;28;19928;-68
2023/07/23 03:05:09;;;;;;;;;;;16.50;99.90;;;;;;4984217;28;19993;-68
2023/07/23 03:07:36;;;;;;;;;;;16.40;99.90;;;;;;4984610;28;19922;-69
2023/07/23 03:10:03;;;;;;;;;;;16.40;99.90;;;;;;4983964;28;20150;-68
2023/07/23 03:12:31;;;;;;;;;;;16.30;99.90;;;;;;4983714;28;19928;-68
2023/07/23 03:14:58;;;;;;;;;;;16.30;99.90;;;;;;4984001;28;20017;-68
2023/07/23 03:17:25;;;;;;;;;;;16.30;99.90;;;;;;4984164;28;19922;-68
2023/07/23 03:19:51;;;;;;;;;;;16.20;99.90;;;;;;4983709;28;20001;-68
2023/07/23 03:22:19;;;;;;;;;;;16.20;99.90;;;;;;4984567;28;19989;-68
2023/07/23 03:24:46;;;;;;;;;;;16.10;99.90;;;;;;4987817;28;19922;-68
2023/07/23 03:27:13;;;;;;;;;;;16.10;99.90;;;;;;5004023;28;19944;-69
2023/07/23 03:29:39;;;;;;;;;;;16.00;99.90;;;;;;5003262;28;19930;-68
2023/07/23 03:32:06;;;;;;;;;;;16.00;99.90;;;;;;5003609;28;20223;-68
2023/07/23 03:34:33;;;;;;;;;;;16.00;99.90;;;;;;5003485;28;19949;-69
2023/07/23 03:36:59;;;;;;;;;;;15.90;99.90;;;;;;5003478;28;19989;-68
2023/07/23 03:39:27;;;;;;;;;;;15.90;99.90;;;;;;5003187;28;19922;-68
2023/07/23 03:41:54;;;;;;;;;;;15.80;99.90;;;;;;5003712;28;19922;-68
2023/07/23 03:44:21;;;;;;;;;;;15.80;99.90;;;;;;5003533;28;19960;-68
2023/07/23 03:46:59;;;;;;;;;;;15.70;99.90;;;;;;5003653;28;19922;-68
2023/07/23 03:49:25;;;;;;;;;;;15.70;99.90;;;;;;5003225;28;19985;-69
2023/07/23 03:51:52;;;;;;;;;;;15.70;99.90;;;;;;5004067;28;19993;-68
2023/07/23 03:54:19;;;;;;;;;;;15.70;99.90;;;;;;5007490;28;19984;-68
2023/07/23 03:56:47;;;;;;;;;;;15.60;99.90;;;;;;5007582;28;19993;-68
2023/07/23 03:59:19;;;;;;;;;;;15.60;99.90;;;;;;5004143;28;19997;-67
2023/07/23 04:01:46;;;;;;;;;;;15.60;99.90;;;;;;5007663;28;19921;-67
2023/07/23 04:04:13;;;;;;;;;;;15.50;99.90;;;;;;5007492;28;19928;-68
2023/07/23 04:06:39;;;;;;;;;;;15.50;99.90;;;;;;5007083;28;19921;-68
2023/07/23 04:09:06;;;;;;;;;;;15.50;99.90;;;;;;5006453;28;19922;-68
2023/07/23 04:11:33;;;;;;;;;;;15.40;99.90;;;;;;5007301;28;19922;-68
2023/07/23 04:14:01;;;;;;;;;;;15.40;99.90;;;;;;5007241;28;19950;-68
2023/07/23 04:16:27;;;;;;;;;;;15.40;99.90;;;;;;5007124;28;20252;-68
2023/07/23 04:18:54;;;;;;;;;;;15.40;99.90;;;;;;5006215;28;19929;-68
2023/07/23 04:21:21;;;;;;;;;;;15.40;99.90;;;;;;5006945;28;20253;-68
2023/07/23 04:23:48;;;;;;;;;;;15.40;99.90;;;;;;5007077;28;20228;-68
2023/07/23 04:26:15;;;;;;;;;;;15.40;99.90;;;;;;5006578;28;19922;-68
2023/07/23 04:28:42;;;;;;;;;;;15.40;99.90;;;;;;5006136;28;19921;-68
2023/07/23 04:31:10;;;;;;;;;;;15.50;99.90;;;;;;5006999;28;19989;-68
2023/07/23 04:33:37;;;;;;;;;;;15.50;99.90;;;;;;4997134;28;19922;-67
2023/07/23 04:36:04;;;;;;;;;;;15.50;99.90;;;;;;5004522;28;19921;-68
2023/07/23 04:38:30;;;;;;;;;;;15.60;99.90;;;;;;5006268;28;19997;-67
2023/07/23 04:40:57;;;;;;;;;;;15.60;99.90;;;;;;4999850;28;19989;-68
2023/07/23 04:43:23;;;;;;;;;;;15.60;99.90;;;;;;5004052;28;19997;-69
2023/07/23 04:45:56;;;;;;;;;;;15.70;99.90;;;;;;5004201;28;19993;-68
2023/07/23 04:48:25;;;;;;;;;;;15.70;99.90;;;;;;5006126;28;19989;-68
2023/07/23 04:50:55;;;;;;;;;;;15.70;99.90;;;;;;5006693;28;19926;-69
2023/07/23 04:53:23;;;;;;;;;;;15.80;99.90;;;;;;5006292;28;19984;-68
2023/07/23 04:55:51;;;;;;;;;;;15.90;99.90;;;;;;5006442;28;19922;-68
2023/07/23 04:58:17;;;;;;;;;;;16.00;99.90;;;;;;5005528;28;20004;-68
2023/07/23 05:00:44;;;;;;;;;;;16.10;99.90;;;;;;5006465;28;20294;-68
2023/07/23 05:03:11;;;;;;;;;;;16.20;99.90;;;;;;5005499;28;19990;-68
2023/07/23 05:05:40;;;;;;;;;;;16.30;99.90;;;;;;5005808;28;19921;-67
2023/07/23 05:08:07;;;;;;;;;;;16.30;99.90;;;;;;5005759;28;19921;-68
2023/07/23 05:10:33;;;;;;;;;;;16.50;99.90;;;;;;5006380;28;19922;-67
2023/07/23 05:13:00;;;;;;;;;;;16.60;99.90;;;;;;4999780;28;19956;-68
2023/07/23 05:15:27;;;;;;;;;;;16.70;99.90;;;;;;4999205;28;19950;-68
2023/07/23 05:17:53;;;;;;;;;;;16.80;99.90;;;;;;5005830;28;20001;-68
2023/07/23 05:20:20;;;;;;;;;;;16.90;99.90;;;;;;5005653;28;20125;-68
2023/07/23 05:22:48;;;;;;;;;;;17.00;99.90;;;;;;4998190;28;20169;-67
2023/07/23 05:25:15;;;;;;;;;;;17.10;99.90;;;;;;4986002;28;20285;-68
2023/07/23 05:27:41;;;;;;;;;;;17.30;99.90;;;;;;5004035;28;20233;-67
2023/07/23 05:30:08;;;;;;;;;;;17.40;99.90;;;;;;5011732;28;19921;-67
2023/07/23 05:32:34;;;;;;;;;;;17.50;99.90;;;;;;5005695;28;19921;-68
2023/07/23 05:35:02;;;;;;;;;;;17.70;99.90;;;;;;5005386;28;20121;-68
2023/07/23 05:37:29;;;;;;;;;;;17.80;99.90;;;;;;5005845;28;19922;-67
2023/07/23 05:39:57;;;;;;;;;;;17.90;99.90;;;;;;5005025;28;20123;-68
2023/07/23 05:42:23;;;;;;;;;;;18.00;99.90;;;;;;5005484;28;19930;-67
2023/07/23 05:44:50;;;;;;;;;;;18.10;99.90;;;;;;5005515;28;19981;-68
2023/07/23 05:47:17;;;;;;;;;;;18.20;99.90;;;;;;5005351;28;19944;-67
2023/07/23 05:49:43;;;;;;;;;;;18.30;99.90;;;;;;5004595;28;19961;-68
2023/07/23 05:52:12;;;;;;;;;;;18.40;99.90;;;;;;5005263;28;19985;-68
2023/07/23 05:54:39;;;;;;;;;;;18.40;99.90;;;;;;5005425;28;19921;-68
2023/07/23 05:57:07;;;;;;;;;;;18.50;99.90;;;;;;5005286;28;19922;-68
2023/07/23 05:59:35;;;;;;;;;;;18.50;99.90;;;;;;5002363;28;19934;-68
2023/07/23 06:02:02;;;;;;;;;;;18.60;99.90;;;;;;5004913;28;19922;-68
2023/07/23 06:04:28;;;;;;;;;;;18.70;99.90;;;;;;5005221;28;19964;-68
2023/07/23 06:06:55;;;;;;;;;;;18.70;99.90;;;;;;5004812;28;19989;-67
2023/07/23 06:09:22;;;;;;;;;;;18.80;99.90;;;;;;5003602;28;19928;-68
2023/07/23 06:11:51;;;;;;;;;;;18.90;99.90;;;;;;5004199;28;19965;-67
2023/07/23 06:14:19;;;;;;;;;;;18.90;99.90;;;;;;5005040;28;20312;-67
2023/07/23 06:16:46;;;;;;;;;;;19.00;99.90;;;;;;5004678;28;20005;-67
2023/07/23 06:19:12;;;;;;;;;;;19.00;99.90;;;;;;4998320;28;19928;-68
2023/07/23 06:21:39;;;;;;;;;;;19.10;99.90;;;;;;4985606;28;19969;-67
2023/07/23 06:24:06;;;;;;;;;;;19.20;99.90;;;;;;4993082;28;20202;-67
2023/07/23 06:26:32;;;;;;;;;;;19.30;99.90;;;;;;5004677;28;19985;-67
2023/07/23 06:28:59;;;;;;;;;;;19.30;99.90;;;;;;5003975;28;19985;-69
2023/07/23 06:31:27;;;;;;;;;;;19.50;99.90;;;;;;5004395;28;20226;-67
2023/07/23 06:33:54;;;;;;;;;;;19.60;99.90;;;;;;4992781;28;20002;-69
2023/07/23 06:36:20;;;;;;;;;;;19.70;99.90;;;;;;4984897;28;19985;-69
2023/07/23 06:38:47;;;;;;;;;;;19.70;99.90;;;;;;4986191;28;19929;-69
2023/07/23 06:41:14;;;;;;;;;;;19.80;99.90;;;;;;5004578;28;19922;-68
2023/07/23 06:43:40;;;;;;;;;;;19.90;99.90;;;;;;5015995;28;20165;-68
2023/07/23 06:46:07;;;;;;;;;;;20.00;99.90;;;;;;5004524;28;19921;-68
2023/07/23 06:48:35;;;;;;;;;;;20.10;99.90;;;;;;5003822;28;20169;-68
2023/07/23 06:51:01;;;;;;;;;;;20.20;99.90;;;;;;5004289;28;19921;-67
2023/07/23 06:53:28;;;;;;;;;;;20.30;99.90;;;;;;5004362;28;20133;-68
2023/07/23 06:55:58;;;;;;;;;;;20.40;99.90;;;;;;5003928;28;20284;-68
2023/07/23 06:58:25;;;;;;;;;;;20.50;99.90;;;;;;5003358;28;19984;-69
2023/07/23 07:00:51;;;;;;;;;;;20.70;99.90;;;;;;5002950;28;20180;-68
2023/07/23 07:03:18;;;;;;;;;;;20.80;99.90;;;;;;5003120;28;19949;-67
2023/07/23 07:05:46;;;;;;;;;;;20.90;99.90;;;;;;5003899;28;19922;-68
2023/07/23 07:08:13;;;;;;;;;;;21.00;99.90;;;;;;5002931;28;19930;-68
2023/07/23 07:10:39;;;;;;;;;;;21.20;99.90;;;;;;5003842;28;19922;-67
2023/07/23 07:13:06;;;;;;;;;;;21.30;99.90;;;;;;5004177;28;19964;-68
2023/07/23 07:15:33;;;;;;;;;;;21.40;99.90;;;;;;5003694;28;19989;-67
2023/07/23 07:17:59;;;;;;;;;;;21.50;99.90;;;;;;5003452;28;19997;-68
2023/07/23 07:20:26;;;;;;;;;;;21.60;99.90;;;;;;5003960;28;19992;-68
2023/07/23 07:22:54;;;;;;;;;;;21.70;99.90;;;;;;5003659;28;19968;-67
2023/07/23 07:25:20;;;;;;;;;;;21.80;99.90;;;;;;5002455;28;19921;-69
2023/07/23 07:27:47;;;;;;;;;;;21.90;99.90;;;;;;5002668;28;19921;-67
2023/07/23 07:30:14;;;;;;;;;;;21.90;99.90;;;;;;4986148;28;19930;-67
2023/07/23 07:32:40;;;;;;;;;;;22.00;99.90;;;;;;4984055;28;19965;-68
2023/07/23 07:35:07;;;;;;;;;;;22.00;99.90;;;;;;4990957;28;19928;-67
2023/07/23 07:37:34;;;;;;;;;;;22.10;99.90;;;;;;5003629;28;19953;-68
2023/07/23 07:40:02;;;;;;;;;;;22.20;99.90;;;;;;5003104;28;20078;-68
2023/07/23 07:42:28;;;;;;;;;;;22.20;99.90;;;;;;5003427;28;19922;-68
2023/07/23 07:44:55;;;;;;;;;;;22.30;99.90;;;;;;5003631;28;19984;-68
2023/07/23 07:47:22;;;;;;;;;;;22.30;99.90;;;;;;5003508;28;19922;-68
2023/07/23 07:49:51;;;;;;;;;;;22.40;99.90;;;;;;5002832;28;20369;-67
2023/07/23 07:52:18;;;;;;;;;;;22.50;99.90;;;;;;5003624;28;19922;-67
2023/07/23 07:54:44;;;;;;;;;;;22.60;99.90;;;;;;5003500;28;20265;-68
2023/07/23 07:57:13;;;;;;;;;;;22.60;99.90;;;;;;5003394;28;19989;-68
2023/07/23 07:59:40;;;;;;;;;;;22.70;99.90;;;;;;5003020;28;20109;-67
2023/07/23 08:02:07;;;;;;;;;;;22.70;99.90;;;;;;5003501;28;20231;-67
2023/07/23 08:04:34;;;;;;;;;;;22.80;99.90;;;;;;5003437;28;19928;-68
2023/07/23 08:07:01;;;;;;;;;;;22.90;99.90;;;;;;5003501;28;20120;-67
2023/07/23 08:09:28;;;;;;;;;;;23.00;99.90;;;;;;5002946;28;20156;-69
2023/07/23 08:11:54;;;;;;;;;;;23.10;99.90;;;;;;5003577;28;19922;-67
2023/07/23 08:14:23;;;;;;;;;;;23.20;99.90;;;;;;5003387;28;19921;-68
2023/07/23 08:16:54;;;;;;;;;;;23.30;99.90;;;;;;5003451;28;19922;-72
2023/07/23 08:19:20;;;;;;;;;;;23.40;99.90;;;;;;5002733;28;19929;-67
2023/07/23 08:21:47;;;;;;;;;;;23.40;99.90;;;;;;5003508;28;19922;-68
2023/07/23 08:24:14;;;;;;;;;;;23.30;99.90;;;;;;5002797;28;19981;-70
2023/07/23 08:26:41;;;;;;;;;;;23.20;99.90;;;;;;4982299;28;19961;-67
2023/07/23 08:29:09;;;;;;;;;;;23.10;99.90;;;;;;4982749;28;19923;-67
2023/07/23 08:31:37;;;;;;;;;;;23.20;99.90;;;;;;4983627;28;19993;-67
2023/07/23 08:34:04;;;;;;;;;;;23.20;99.90;;;;;;4996314;28;19921;-67
2023/07/23 08:36:30;;;;;;;;;;;23.20;99.90;;;;;;5003194;28;19973;-69
2023/07/23 08:38:58;;;;;;;;;;;23.30;99.90;;;;;;5004551;28;19965;-69
2023/07/23 08:41:36;;;;;;;;;;;23.40;99.90;;;;;;5025116;28;19922;-69
2023/07/23 08:44:36;;;;;;;;;;;23.40;99.90;;;;;;5006518;28;19921;-67
2023/07/23 08:47:11;;;;;;;;;;;23.50;99.90;;;;;;4946400;29;20023;-68
2023/07/23 08:49:40;;;;;;;;;;;23.60;99.90;;;;;;4945720;29;20031;-67
2023/07/23 08:52:07;;;;;;;;;;;23.70;99.90;;;;;;4976695;28;19992;-68
2023/07/23 08:54:33;;;;;;;;;;;23.80;99.90;;;;;;5006400;28;19928;-68
2023/07/23 08:57:01;;;;;;;;;;;23.80;99.90;;;;;;5000579;28;19922;-68
2023/07/23 08:59:28;;;;;;;;;;;23.90;99.90;;;;;;4985903;28;20210;-68
2023/07/23 09:01:55;;;;;;;;;;;23.90;99.90;;;;;;4986813;28;19929;-67
2023/07/23 09:04:23;;;;;;;;;;;24.00;99.90;;;;;;4986875;28;19926;-68
2023/07/23 09:06:52;;;;;;;;;;;24.00;99.90;;;;;;5005473;28;20249;-68
2023/07/23 09:09:19;;;;;;;;;;;24.10;99.90;;;;;;5005328;28;19929;-68
2023/07/23 09:11:46;;;;;;;;;;;24.10;99.90;;;;;;5025658;28;19936;-68
2023/07/23 09:14:13;;;;;;;;;;;24.00;99.90;;;;;;5025288;28;20205;-68
2023/07/23 09:16:40;;;;;;;;;;;24.00;99.90;;;;;;5008411;28;20265;-67
2023/07/23 09:19:09;;;;;;;;;;;23.90;99.90;;;;;;5004933;28;19922;-68
2023/07/23 09:21:38;;;;;;;;;;;24.00;99.90;;;;;;5005517;28;19922;-68
2023/07/23 09:24:06;;;;;;;;;;;24.00;99.90;;;;;;5005805;28;19922;-68
2023/07/23 09:26:33;;;;;;;;;;;24.20;99.90;;;;;;5005868;28;20197;-68
2023/07/23 09:29:00;;;;;;;;;;;24.30;99.90;;;;;;4994145;28;19985;-68
2023/07/23 09:31:28;;;;;;;;;;;24.30;99.90;;;;;;4999041;28;19926;-68
2023/07/23 09:33:55;;;;;;;;;;;24.40;99.90;;;;;;4993950;28;19946;-68
2023/07/23 09:36:22;;;;;;;;;;;24.50;99.90;;;;;;5000246;28;19922;-67
2023/07/23 09:38:57;;;;;;;;;;;24.60;99.90;;;;;;4989037;28;19929;-68
2023/07/23 09:41:28;;;;;;;;;;;24.70;99.90;;;;;;4985851;28;19937;-68
2023/07/23 09:43:57;;;;;;;;;;;24.70;99.90;;;;;;5000978;28;20213;-68
2023/07/23 09:46:25;;;;;;;;;;;24.80;99.90;;;;;;4989403;28;19981;-67
2023/07/23 09:48:52;;;;;;;;;;;24.90;99.90;;;;;;4985362;28;19985;-68
2023/07/23 09:51:18;;;;;;;;;;;25.00;99.90;;;;;;4985151;28;19922;-68
2023/07/23 09:53:46;;;;;;;;;;;25.10;99.90;;;;;;4985787;28;19928;-66
2023/07/23 09:56:14;;;;;;;;;;;25.00;99.90;;;;;;4993098;28;20205;-67
2023/07/23 09:58:43;;;;;;;;;;;25.00;99.90;;;;;;5002243;28;20124;-67
2023/07/23 10:01:10;;;;;;;;;;;25.00;99.90;;;;;;5003942;28;19964;-68
2023/07/23 10:03:37;;;;;;;;;;;25.00;99.90;;;;;;5005055;28;19975;-67
2023/07/23 10:06:04;;;;;;;;;;;25.10;99.90;;;;;;5004529;28;20418;-68
2023/07/23 10:08:35;;;;;;;;;;;25.30;99.90;;;;;;5003301;28;20926;-67
2023/07/23 10:11:01;;;;;;;;;;;25.30;99.90;;;;;;5004897;28;19948;-68
2023/07/23 10:13:29;;;;;;;;;;;25.40;99.90;;;;;;4987668;28;19929;-68
2023/07/23 10:15:56;;;;;;;;;;;25.30;99.90;;;;;;4985111;28;20141;-67
2023/07/23 10:18:24;;;;;;;;;;;25.40;99.90;;;;;;4984484;28;20098;-67
2023/07/23 10:20:51;;;;;;;;;;;25.50;99.90;;;;;;4985124;28;19929;-68
2023/07/23 10:23:17;;;;;;;;;;;25.70;99.90;;;;;;4985190;28;19930;-67
2023/07/23 10:25:44;;;;;;;;;;;25.80;99.90;;;;;;4985231;28;19928;-67
2023/07/23 10:28:21;;;;;;;;;;;25.90;99.90;;;;;;5003601;28;19990;-68
2023/07/23 10:31:09;;;;;;;;;;;25.90;99.90;;;;;;4989742;28;19934;-69
2023/07/23 10:33:35;;;;;;;;;;;25.90;99.90;;;;;;4993613;28;19921;-67
2023/07/23 10:36:05;;;;;;;;;;;25.80;99.90;;;;;;5004116;28;19921;-67
2023/07/23 10:38:33;;;;;;;;;;;25.90;99.90;;;;;;5003919;28;19993;-67
2023/07/23 10:41:00;;;;;;;;;;;26.10;99.90;;;;;;5004242;28;19929;-66
2023/07/23 10:43:37;;;;;;;;;;;26.10;99.90;;;;;;5004047;28;19928;-67
2023/07/23 10:46:05;;;;;;;;;;;26.10;99.90;;;;;;5004082;28;19989;-66
2023/07/23 10:48:39;;;;;;;;;;;26.00;99.90;;;;;;5003035;28;19922;-68
2023/07/23 10:51:07;;;;;;;;;;;26.10;99.90;;;;;;5003670;28;20338;-67
2023/07/23 10:53:33;;;;;;;;;;;26.20;99.90;;;;;;5008628;28;19927;-67
2023/07/23 10:56:00;;;;;;;;;;;26.20;99.90;;;;;;4996502;28;19994;-68
2023/07/23 10:58:27;;;;;;;;;;;26.30;99.90;;;;;;4984031;28;19929;-68
2023/07/23 11:00:55;;;;;;;;;;;26.20;99.90;;;;;;4983947;28;19929;-67
2023/07/23 11:03:24;;;;;;;;;;;26.20;99.90;;;;;;4983734;28;19958;-67
2023/07/23 11:05:51;;;;;;;;;;;26.20;99.90;;;;;;4984501;28;19930;-68
2023/07/23 11:08:18;;;;;;;;;;;26.10;99.90;;;;;;4984086;28;20001;-67
2023/07/23 11:10:46;;;;;;;;;;;26.20;99.90;;;;;;4984588;28;19969;-68
2023/07/23 11:13:14;;;;;;;;;;;26.20;99.90;;;;;;4984284;28;19922;-67
2023/07/23 11:15:41;;;;;;;;;;;26.20;99.90;;;;;;4984505;28;20034;-66
2023/07/23 11:18:09;;;;;;;;;;;26.30;99.90;;;;;;4983940;28;19921;-67
2023/07/23 11:20:37;;;;;;;;;;;26.30;99.90;;;;;;4985001;28;20116;-68
2023/07/23 11:23:05;;;;;;;;;;;26.30;99.90;;;;;;5002141;28;19980;-68
2023/07/23 11:25:32;;;;;;;;;;;26.40;99.90;;;;;;4998450;28;19949;-67
2023/07/23 11:27:58;;;;;;;;;;;26.40;99.90;;;;;;5003138;28;19936;-66
2023/07/23 11:30:25;;;;;;;;;;;26.40;99.90;;;;;;5003497;28;19953;-67
2023/07/23 11:32:52;;;;;;;;;;;26.30;99.90;;;;;;5002046;28;19992;-66
2023/07/23 11:35:19;;;;;;;;;;;26.40;99.90;;;;;;5003517;28;19968;-67
2023/07/23 11:37:50;;;;;;;;;;;26.40;99.90;;;;;;5002421;28;20118;-66
2023/07/23 11:40:18;;;;;;;;;;;26.60;99.90;;;;;;4983685;28;19954;-67
2023/07/23 11:42:44;;;;;;;;;;;26.80;99.90;;;;;;4994123;28;19921;-67
2023/07/23 11:45:11;;;;;;;;;;;27.10;99.90;;;;;;4990447;28;19993;-67
2023/07/23 11:47:46;;;;;;;;;;;27.40;99.70;;;;;;4978582;28;19989;-67
2023/07/23 11:50:13;;;;;;;;;;;27.60;99.90;;;;;;5003108;28;19938;-67
2023/07/23 11:52:40;;;;;;;;;;;27.80;99.00;;;;;;5003091;28;19921;-67
2023/07/23 11:55:18;;;;;;;;;;;27.50;98.30;;;;;;5005705;28;19921;-67
2023/07/23 11:57:44;;;;;;;;;;;27.40;98.80;;;;;;4995500;28;20008;-66
2023/07/23 12:00:12;;;;;;;;;;;27.10;99.00;;;;;;5002491;28;19985;-66
2023/07/23 12:02:38;;;;;;;;;;;27.10;99.60;;;;;;5003097;28;19981;-66
2023/07/23 12:05:06;;;;;;;;;;;27.00;98.80;;;;;;5003294;28;19922;-66
2023/07/23 12:07:33;;;;;;;;;;;27.00;98.80;;;;;;5003125;28;19989;-67
2023/07/23 12:10:00;;;;;;;;;;;27.00;98.80;;;;;;5002089;28;19953;-66
2023/07/23 12:12:28;;;;;;;;;;;27.10;97.50;;;;;;5002792;28;20162;-67
2023/07/23 12:15:01;;;;;;;;;;;27.30;97.80;;;;;;5006774;28;19921;-66
2023/07/23 12:17:27;;;;;;;;;;;27.60;97.40;;;;;;5006552;28;19979;-67
2023/07/23 12:19:54;;;;;;;;;;;27.80;97.00;;;;;;5000501;28;19928;-67
2023/07/23 12:22:20;;;;;;;;;;;27.80;96.70;;;;;;5005603;28;19985;-67
2023/07/23 12:24:47;;;;;;;;;;;27.90;97.00;;;;;;5003098;28;19957;-67
2023/07/23 12:27:14;;;;;;;;;;;27.90;97.20;;;;;;4987002;28;19922;-66
2023/07/23 12:29:42;;;;;;;;;;;28.00;97.10;;;;;;4993261;28;19993;-67
2023/07/23 12:32:10;;;;;;;;;;;27.90;95.90;;;;;;5003195;28;19922;-67
2023/07/23 12:34:36;;;;;;;;;;;28.00;95.60;;;;;;5004278;28;19929;-66
2023/07/23 12:37:03;;;;;;;;;;;28.40;95.20;;;;;;5006022;28;20176;-66
2023/07/23 12:39:30;;;;;;;;;;;28.70;94.60;;;;;;5005807;28;20202;-66
2023/07/23 12:41:57;;;;;;;;;;;28.70;93.70;;;;;;5006135;28;20050;-66
2023/07/23 12:44:24;;;;;;;;;;;28.60;93.30;;;;;;5000285;28;19989;-67
2023/07/23 12:46:52;;;;;;;;;;;28.60;93.30;;;;;;5004650;28;20006;-66
2023/07/23 12:49:19;;;;;;;;;;;28.50;92.70;;;;;;5003924;28;19928;-65
2023/07/23 12:51:45;;;;;;;;;;;28.40;92.90;;;;;;5005298;28;19981;-66
2023/07/23 12:54:12;;;;;;;;;;;28.40;93.00;;;;;;5005231;28;20236;-68
2023/07/23 12:56:39;;;;;;;;;;;28.20;92.90;;;;;;5005769;28;19922;-66
2023/07/23 12:59:05;;;;;;;;;;;28.40;92.90;;;;;;5005064;28;19992;-66
2023/07/23 13:01:32;;;;;;;;;;;28.60;92.60;;;;;;5005701;28;19929;-66
2023/07/23 13:04:00;;;;;;;;;;;28.80;92.30;;;;;;5006191;28;19953;-66
2023/07/23 13:06:27;;;;;;;;;;;29.10;91.80;;;;;;5002968;28;20103;-66
2023/07/23 13:08:53;;;;;;;;;;;29.20;91.50;;;;;;4998635;28;20259;-67
2023/07/23 13:11:20;;;;;;;;;;;29.20;91.50;;;;;;5006017;28;19922;-66
2023/07/23 13:13:48;;;;;;;;;;;29.10;91.30;;;;;;5005785;28;20260;-66
2023/07/23 13:16:14;;;;;;;;;;;29.20;91.30;;;;;;5002266;28;19922;-66
2023/07/23 13:18:41;;;;;;;;;;;29.20;91.40;;;;;;4999311;28;19992;-66
2023/07/23 13:21:09;;;;;;;;;;;29.20;92.00;;;;;;5004362;28;20301;-66
2023/07/23 13:23:35;;;;;;;;;;;29.10;91.50;;;;;;4991119;28;20229;-66
2023/07/23 13:26:02;;;;;;;;;;;29.10;91.80;;;;;;5003303;28;19960;-66
2023/07/23 13:28:29;;;;;;;;;;;29.10;92.00;;;;;;5003105;28;19928;-66
2023/07/23 13:30:57;;;;;;;;;;;29.00;91.80;;;;;;5005366;28;19928;-66
2023/07/23 13:33:24;;;;;;;;;;;28.90;91.70;;;;;;5005237;28;19989;-67
2023/07/23 13:35:53;;;;;;;;;;;28.60;91.10;;;;;;5002528;28;19928;-66
2023/07/23 13:38:21;;;;;;;;;;;28.30;90.60;;;;;;4989075;28;19922;-66
2023/07/23 13:40:48;;;;;;;;;;;28.10;91.00;;;;;;4994403;28;19928;-66
2023/07/23 13:43:16;;;;;;;;;;;27.80;91.50;;;;;;5002723;28;19921;-66
2023/07/23 13:45:43;;;;;;;;;;;27.50;91.60;;;;;;5004392;28;19936;-66
2023/07/23 13:48:09;;;;;;;;;;;27.30;91.50;;;;;;4996551;28;19969;-65
2023/07/23 13:50:36;;;;;;;;;;;27.20;91.60;;;;;;4995867;28;19985;-66
2023/07/23 13:53:03;;;;;;;;;;;27.10;91.30;;;;;;5005422;28;20200;-66
2023/07/23 13:55:31;;;;;;;;;;;27.00;91.70;;;;;;5004956;28;19945;-66
2023/07/23 13:57:57;;;;;;;;;;;26.90;92.00;;;;;;4996170;28;19936;-66
2023/07/23 14:00:24;;;;;;;;;;;26.80;91.80;;;;;;4985707;28;19956;-66
2023/07/23 14:02:51;;;;;;;;;;;26.80;91.90;;;;;;4985662;28;20001;-66
2023/07/23 14:05:19;;;;;;;;;;;26.70;92.30;;;;;;4995532;28;19922;-66
2023/07/23 14:07:46;;;;;;;;;;;26.60;92.30;;;;;;4992724;28;19929;-66
2023/07/23 14:10:13;;;;;;;;;;;26.50;92.40;;;;;;5000955;28;19929;-66
2023/07/23 14:12:41;;;;;;;;;;;26.50;92.60;;;;;;4987018;28;20269;-66
2023/07/23 14:15:08;;;;;;;;;;;26.50;92.60;;;;;;4985124;28;19985;-66
2023/07/23 14:17:34;;;;;;;;;;;26.40;92.70;;;;;;4985588;28;19989;-66